createdAt,value
2019-01-15T00:01:41.840Z,87.61
2019-01-15T00:05:42.869Z,87.18
2019-01-15T00:09:43.865Z,84.75
2019-01-15T00:13:44.910Z,83.29
2019-01-15T00:17:45.936Z,83.94
2019-01-15T00:21:47.006Z,84.64
2019-01-15T00:25:48.023Z,84.74
2019-01-15T00:29:50.544Z,84.98
2019-01-15T00:33:51.558Z,84.64
2019-01-15T00:37:52.584Z,84.81
2019-01-15T00:41:54.078Z,85.01
2019-01-15T00:45:55.240Z,85.01
2019-01-15T00:49:56.228Z,84.75
2019-01-15T00:53:57.268Z,83.95
2019-01-15T00:57:58.240Z,85.09
2019-01-15T01:01:59.292Z,85.09
2019-01-15T01:06:00.267Z,85.07
2019-01-15T01:10:01.836Z,85.01
2019-01-15T01:14:03.513Z,85.12
2019-01-15T01:18:05.181Z,85.24
2019-01-15T01:22:07.208Z,86.46
2019-01-15T01:26:08.257Z,86.46
2019-01-15T01:30:15.728Z,87.23
2019-01-15T01:34:18.082Z,87.92
2019-01-15T01:38:20.555Z,88.15
2019-01-15T01:42:21.590Z,87.95
2019-01-15T01:46:22.564Z,87.46
2019-01-15T01:50:23.643Z,87.00
2019-01-15T01:54:24.814Z,86.65
2019-01-15T01:58:26.366Z,86.18
2019-01-15T02:02:27.861Z,85.89
2019-01-15T02:06:29.533Z,85.70
2019-01-15T02:10:31.588Z,85.54
2019-01-15T02:14:32.557Z,86.05
2019-01-15T02:18:34.012Z,85.71
2019-01-15T02:22:35.079Z,85.57
2019-01-15T02:26:36.054Z,85.59
2019-01-15T02:30:37.091Z,85.28
2019-01-15T02:34:38.097Z,85.54
2019-01-15T02:38:39.625Z,85.48
2019-01-15T02:42:46.453Z,85.41
2019-01-15T02:46:43.480Z,85.45
2019-01-15T02:50:44.447Z,85.45
2019-01-15T02:54:45.500Z,85.11
2019-01-15T02:58:46.995Z,85.07
2019-01-15T03:02:48.111Z,85.12
2019-01-15T03:06:50.176Z,85.30
2019-01-15T03:10:51.229Z,85.19
2019-01-15T03:14:53.274Z,84.81
2019-01-15T03:18:54.315Z,84.57
2019-01-15T03:22:56.259Z,84.56
2019-01-15T03:26:57.313Z,84.51
2019-01-15T03:30:58.513Z,84.47
2019-01-15T03:35:00.519Z,84.17
2019-01-15T03:39:02.542Z,84.38
2019-01-15T03:43:05.050Z,84.68
2019-01-15T03:47:06.025Z,84.68
2019-01-15T03:51:07.672Z,84.72
2019-01-15T03:55:08.731Z,84.50
2019-01-15T03:59:09.967Z,84.01
2019-01-15T04:03:10.934Z,84.41
2019-01-15T04:07:12.684Z,84.55
2019-01-15T04:11:13.700Z,84.64
2019-01-15T04:15:14.846Z,84.76
2019-01-15T04:19:16.406Z,84.81
2019-01-15T04:23:18.005Z,84.72
2019-01-15T04:27:19.145Z,84.28
2019-01-15T04:31:20.251Z,84.43
2019-01-15T04:35:21.597Z,84.74
2019-01-15T04:39:22.950Z,85.14
2019-01-15T04:43:24.511Z,84.73
2019-01-15T04:47:26.734Z,85.62
2019-01-15T04:51:28.854Z,87.04
2019-01-15T04:55:29.966Z,87.17
2019-01-15T04:59:31.501Z,87.31
2019-01-15T05:03:32.529Z,86.25
2019-01-15T05:07:33.565Z,86.50
2019-01-15T05:11:34.592Z,86.07
2019-01-15T05:15:35.625Z,86.16
2019-01-15T05:19:36.701Z,86.16
2019-01-15T05:23:37.721Z,86.06
2019-01-15T05:27:38.825Z,86.74
2019-01-15T05:31:39.872Z,86.89
2019-01-15T05:35:40.891Z,86.92
2019-01-15T05:39:41.896Z,86.86
2019-01-15T05:43:42.956Z,86.68
2019-01-15T05:47:44.685Z,86.80
2019-01-15T05:51:46.430Z,86.83
2019-01-15T05:55:47.386Z,86.74
2019-01-15T05:59:48.421Z,86.84
2019-01-15T06:03:49.433Z,86.57
2019-01-15T06:07:51.708Z,86.55
2019-01-15T06:11:52.704Z,86.53
2019-01-15T06:15:53.789Z,86.54
2019-01-15T06:19:55.269Z,86.39
2019-01-15T06:23:56.282Z,86.86
2019-01-15T06:27:57.254Z,86.71
2019-01-15T06:31:58.220Z,86.63
2019-01-15T06:35:59.176Z,86.73
2019-01-15T06:40:01.733Z,86.65
2019-01-15T06:44:02.742Z,86.73
2019-01-15T06:48:04.040Z,86.60
2019-01-15T06:52:07.212Z,86.68
2019-01-15T06:56:08.347Z,86.68
2019-01-15T07:00:14.605Z,86.92
2019-01-15T07:04:16.032Z,86.87
2019-01-15T07:08:17.299Z,86.97
2019-01-15T07:12:18.830Z,87.00
2019-01-15T07:16:20.770Z,86.89
2019-01-15T07:20:21.948Z,86.88
2019-01-15T07:24:23.203Z,86.87
2019-01-15T07:28:24.990Z,86.83
2019-01-15T07:32:26.343Z,86.75
2019-01-15T07:36:27.781Z,86.69
2019-01-15T07:40:28.974Z,86.75
2019-01-15T07:44:31.332Z,86.67
2019-01-15T07:48:32.413Z,86.66
2019-01-15T07:52:37.955Z,86.62
2019-01-15T07:56:39.596Z,86.49
2019-01-15T08:00:41.218Z,86.34
2019-01-15T08:04:42.499Z,86.32
2019-01-15T08:08:44.191Z,86.34
2019-01-15T08:12:45.469Z,86.29
2019-01-15T08:16:47.062Z,86.19
2019-01-15T08:20:48.288Z,86.08
2019-01-15T08:24:49.604Z,85.97
2019-01-15T08:28:52.456Z,85.81
2019-01-15T08:32:54.667Z,85.54
2019-01-15T08:36:56.144Z,85.76
2019-01-15T08:40:57.227Z,85.36
2019-01-15T08:44:59.474Z,85.43
2019-01-15T08:49:00.694Z,85.40
2019-01-15T08:53:02.645Z,85.04
2019-01-15T08:57:03.794Z,85.03
2019-01-15T09:01:05.844Z,84.92
2019-01-15T09:05:06.943Z,84.88
2019-01-15T09:09:09.519Z,84.95
2019-01-15T09:13:10.599Z,84.85
2019-01-15T09:17:11.564Z,84.63
2019-01-15T09:21:12.644Z,84.76
2019-01-15T09:25:13.706Z,84.50
2019-01-15T09:29:15.949Z,84.64
2019-01-15T09:33:17.015Z,84.49
2019-01-15T09:37:18.224Z,84.52
2019-01-15T09:41:19.209Z,84.64
2019-01-15T09:45:22.053Z,84.40
2019-01-15T09:49:23.054Z,84.39
2019-01-15T09:53:24.094Z,84.41
2019-01-15T09:57:25.136Z,84.40
2019-01-15T10:01:26.289Z,84.39
2019-01-15T10:05:27.305Z,84.32
2019-01-15T10:09:28.484Z,84.33
2019-01-15T10:13:29.524Z,84.42
2019-01-15T10:17:30.605Z,84.12
2019-01-15T10:21:31.675Z,84.08
2019-01-15T10:25:34.096Z,83.95
2019-01-15T10:29:35.250Z,83.71
2019-01-15T10:33:46.160Z,84.08
2019-01-15T10:37:47.261Z,84.00
2019-01-15T10:41:48.276Z,83.94
2019-01-15T10:45:49.304Z,84.00
2019-01-15T10:49:50.415Z,84.05
2019-01-15T10:53:51.424Z,84.07
2019-01-15T10:57:52.420Z,83.59
2019-01-15T11:01:53.365Z,83.76
2019-01-15T11:05:56.189Z,83.78
2019-01-15T11:09:57.235Z,83.26
2019-01-15T11:13:58.486Z,83.53
2019-01-15T11:17:59.850Z,83.25
2019-01-15T11:22:02.805Z,83.56
2019-01-15T11:26:04.150Z,83.18
2019-01-15T11:30:06.875Z,83.25
2019-01-15T11:34:14.265Z,83.45
2019-01-15T11:38:15.610Z,83.37
2019-01-15T11:42:18.468Z,83.23
2019-01-15T11:46:20.081Z,83.41
2019-01-15T11:50:21.262Z,83.34
2019-01-15T11:54:22.451Z,83.53
2019-01-15T11:58:28.373Z,83.71
2019-01-15T12:02:36.200Z,83.62
2019-01-15T12:06:55.129Z,83.83
2019-01-15T12:11:15.451Z,83.88
2019-01-15T12:15:30.322Z,83.86
2019-01-15T12:19:55.540Z,83.85
2019-01-15T12:24:14.413Z,83.73
2019-01-15T12:28:40.565Z,83.50
2019-01-15T12:33:10.995Z,83.43
2019-01-15T12:37:29.760Z,83.40
2019-01-15T12:41:57.230Z,83.38
2019-01-15T12:46:20.200Z,83.29
2019-01-15T12:50:42.816Z,83.21
2019-01-15T12:55:14.860Z,83.55
2019-01-15T12:59:53.055Z,83.51
2019-01-15T13:04:07.010Z,83.36
2019-01-15T13:08:25.880Z,83.53
2019-01-15T13:12:58.574Z,83.55
2019-01-15T13:17:18.575Z,83.74
2019-01-15T13:21:44.726Z,83.78
2019-01-15T13:26:07.781Z,83.84
2019-01-15T13:30:46.009Z,83.87
2019-01-15T13:35:04.574Z,83.97
2019-01-15T13:39:31.223Z,84.02
2019-01-15T13:43:47.131Z,84.01
2019-01-15T13:48:04.451Z,84.26
2019-01-15T13:52:27.739Z,83.86
2019-01-15T13:56:46.396Z,83.99
2019-01-15T14:00:57.593Z,84.07
2019-01-15T14:05:20.148Z,83.95
2019-01-15T14:09:42.908Z,83.98
2019-01-15T14:14:03.208Z,83.98
2019-01-15T14:18:23.205Z,84.05
2019-01-15T14:22:43.411Z,84.18
2019-01-15T14:27:01.987Z,83.95
2019-01-15T14:31:20.637Z,84.00
2019-01-15T14:35:38.690Z,84.27
2019-01-15T14:39:58.585Z,84.15
2019-01-15T14:44:17.357Z,84.11
2019-01-15T14:48:36.640Z,84.11
2019-01-15T14:53:09.327Z,84.26
2019-01-15T14:57:28.103Z,84.33
2019-01-15T15:01:46.837Z,84.35
2019-01-15T15:06:05.965Z,84.12
2019-01-15T15:10:26.035Z,84.03
2019-01-15T15:14:53.906Z,84.33
2019-01-15T15:19:14.132Z,84.26
2019-01-15T15:23:34.220Z,84.22
2019-01-15T15:27:52.806Z,84.34
2019-01-15T15:32:18.745Z,84.37
2019-01-15T15:36:43.944Z,84.58
2019-01-15T15:41:09.577Z,84.30
2019-01-15T15:45:29.460Z,84.30
2019-01-15T15:49:58.774Z,84.27
2019-01-15T15:54:17.440Z,84.46
2019-01-15T15:58:40.317Z,84.68
2019-01-15T16:03:03.070Z,84.59
2019-01-15T16:07:38.225Z,84.55
2019-01-15T16:12:13.217Z,84.46
2019-01-15T16:16:28.556Z,84.44
2019-01-15T16:20:38.621Z,84.48
2019-01-15T16:25:01.583Z,84.63
2019-01-15T16:29:24.290Z,84.66
2019-01-15T16:33:47.521Z,84.85
2019-01-15T16:38:08.356Z,84.89
2019-01-15T16:42:27.309Z,84.88
2019-01-15T16:47:03.818Z,84.92
2019-01-15T16:51:22.464Z,85.07
2019-01-15T16:55:55.355Z,85.08
2019-01-15T17:00:19.143Z,84.99
2019-01-15T17:04:42.212Z,85.09
2019-01-15T17:09:11.320Z,84.94
2019-01-15T17:13:34.115Z,84.91
2019-01-15T17:18:03.834Z,85.00
2019-01-15T17:22:26.875Z,84.80
2019-01-15T17:26:47.091Z,84.85
2019-01-15T17:31:19.676Z,84.59
2019-01-15T17:35:42.649Z,84.59
2019-01-15T17:40:01.200Z,84.48
2019-01-15T17:44:16.179Z,84.62
2019-01-15T17:48:39.146Z,84.63
2019-01-15T17:52:58.014Z,84.57
2019-01-15T17:57:24.160Z,84.43
2019-01-15T18:01:47.384Z,84.47
2019-01-15T18:06:12.854Z,84.63
2019-01-15T18:10:32.955Z,84.55
2019-01-15T18:15:11.177Z,84.57
2019-01-15T18:19:36.717Z,84.62
2019-01-15T18:24:05.301Z,84.64
2019-01-15T18:28:31.438Z,84.66
2019-01-15T18:32:51.759Z,84.80
2019-01-15T18:37:27.357Z,84.92
2019-01-15T18:42:03.186Z,84.78
2019-01-15T18:46:23.277Z,84.85
2019-01-15T18:51:01.707Z,84.89
2019-01-15T18:55:28.975Z,84.88
2019-01-15T18:59:49.076Z,84.86
2019-01-15T19:04:08.046Z,84.93
2019-01-15T19:08:23.481Z,84.80
2019-01-15T19:12:45.993Z,84.74
2019-01-15T19:17:12.441Z,84.73
2019-01-15T19:21:30.807Z,84.71
2019-01-15T19:26:00.121Z,84.70
2019-01-15T19:30:27.791Z,84.77
2019-01-15T19:35:04.177Z,84.48
2019-01-15T19:39:24.478Z,84.29
2019-01-15T19:43:50.517Z,84.32
2019-01-15T19:48:09.081Z,84.33
2019-01-15T19:52:28.055Z,84.36
2019-01-15T19:56:48.465Z,84.64
2019-01-15T20:01:17.990Z,84.65
2019-01-15T20:05:36.856Z,84.40
2019-01-15T20:09:53.264Z,84.35
2019-01-15T20:14:23.803Z,84.18
2019-01-15T20:18:42.678Z,84.23
2019-01-15T20:23:12.813Z,84.23
2019-01-15T20:27:35.635Z,84.18
2019-01-15T20:32:01.817Z,84.13
2019-01-15T20:36:13.517Z,84.15
2019-01-15T20:40:51.947Z,84.31
2019-01-15T20:45:29.964Z,84.41
2019-01-15T20:49:49.967Z,84.28
2019-01-15T20:54:08.529Z,84.32
2019-01-15T20:58:27.089Z,84.58
2019-01-15T21:02:46.380Z,84.44
2019-01-15T21:07:09.235Z,84.32
2019-01-15T21:11:27.861Z,84.46
2019-01-15T21:15:39.503Z,84.34
2019-01-15T21:20:02.797Z,84.40
2019-01-15T21:24:25.947Z,84.27
2019-01-15T21:28:45.132Z,84.45
2019-01-15T21:33:06.075Z,84.59
2019-01-15T21:37:41.395Z,84.53
2019-01-15T21:42:07.130Z,84.59
2019-01-15T21:46:30.121Z,84.73
2019-01-15T21:50:50.197Z,84.72
2019-01-15T21:55:16.253Z,84.70
2019-01-15T21:59:42.691Z,84.79
2019-01-15T22:03:56.741Z,85.09
2019-01-15T22:08:31.584Z,85.09
2019-01-15T22:13:00.178Z,85.14
2019-01-15T22:17:13.316Z,85.19
2019-01-15T22:21:33.825Z,84.79
2019-01-15T22:26:06.009Z,84.42
2019-01-15T22:30:33.176Z,84.47
2019-01-15T22:34:51.965Z,84.35
2019-01-15T22:39:12.148Z,84.39
2019-01-15T22:43:23.133Z,84.17
2019-01-15T22:47:42.007Z,84.34
2019-01-15T22:52:20.226Z,84.60
2019-01-15T22:56:40.730Z,84.91
2019-01-15T23:01:09.433Z,85.24
2019-01-15T23:05:29.536Z,85.93
2019-01-15T23:09:52.281Z,85.71
2019-01-15T23:14:18.131Z,85.85
2019-01-15T23:18:37.020Z,85.80
2019-01-15T23:23:09.189Z,85.95
2019-01-15T23:27:44.957Z,85.68
2019-01-15T23:32:05.331Z,85.66
2019-01-15T23:36:30.750Z,85.65
2019-01-15T23:40:44.632Z,85.43
2019-01-15T23:45:10.577Z,84.76
2019-01-15T23:49:45.949Z,84.70
2019-01-15T23:54:21.279Z,84.94
2019-01-15T23:58:41.383Z,85.03
